sensor_id;sensor_type;location;lat;lon;timestamp;temperature;humidity
24444;DHT22;13346;50.984;5.822;2023-01-13T00:00:44;10.00;99.90
24444;DHT22;13346;50.984;5.822;2023-01-13T00:03:11;10.10;99.90
24444;DHT22;13346;50.984;5.822;2023-01-13T00:05:38;10.10;99.90
24444;DHT22;13346;50.984;5.822;2023-01-13T00:08:05;10.00;99.90
24444;DHT22;13346;50.984;5.822;2023-01-13T00:10:35;10.10;99.90
24444;DHT22;13346;50.984;5.822;2023-01-13T00:13:03;10.10;99.90
24444;DHT22;13346;50.984;5.822;2023-01-13T00:15:31;10.10;99.90
24444;DHT22;13346;50.984;5.822;2023-01-13T00:17:59;10.10;99.90
24444;DHT22;13346;50.984;5.822;2023-01-13T00:20:26;10.10;99.90
24444;DHT22;13346;50.984;5.822;2023-01-13T00:22:53;10.00;99.90
24444;DHT22;13346;50.984;5.822;2023-01-13T00:25:21;10.20;99.90
24444;DHT22;13346;50.984;5.822;2023-01-13T00:27:50;10.10;99.90
24444;DHT22;13346;50.984;5.822;2023-01-13T00:30:17;10.10;99.90
24444;DHT22;13346;50.984;5.822;2023-01-13T00:32:44;10.00;99.90
24444;DHT22;13346;50.984;5.822;2023-01-13T00:35:11;10.00;99.90
24444;DHT22;13346;50.984;5.822;2023-01-13T00:37:38;10.10;99.90
24444;DHT22;13346;50.984;5.822;2023-01-13T00:40:07;10.00;99.90
24444;DHT22;13346;50.984;5.822;2023-01-13T00:42:34;10.10;99.90
24444;DHT22;13346;50.984;5.822;2023-01-13T00:45:20;10.10;99.90
24444;DHT22;13346;50.984;5.822;2023-01-13T00:47:47;10.10;99.90
24444;DHT22;13346;50.984;5.822;2023-01-13T00:50:15;10.00;99.90
24444;DHT22;13346;50.984;5.822;2023-01-13T00:52:42;10.00;99.90
24444;DHT22;13346;50.984;5.822;2023-01-13T00:55:09;10.00;99.90
24444;DHT22;13346;50.984;5.822;2023-01-13T00:57:37;10.00;99.90
24444;DHT22;13346;50.984;5.822;2023-01-13T01:00:05;10.10;99.90
24444;DHT22;13346;50.984;5.822;2023-01-13T01:02:34;10.00;99.90
24444;DHT22;13346;50.984;5.822;2023-01-13T01:05:01;9.90;99.90
24444;DHT22;13346;50.984;5.822;2023-01-13T01:07:29;10.00;99.90
24444;DHT22;13346;50.984;5.822;2023-01-13T01:09:56;10.00;99.90
24444;DHT22;13346;50.984;5.822;2023-01-13T01:12:23;10.00;99.90
24444;DHT22;13346;50.984;5.822;2023-01-13T01:14:50;9.80;99.90
24444;DHT22;13346;50.984;5.822;2023-01-13T01:17:17;9.90;99.90
24444;DHT22;13346;50.984;5.822;2023-01-13T01:19:46;9.90;99.90
24444;DHT22;13346;50.984;5.822;2023-01-13T01:22:13;9.90;99.90
24444;DHT22;13346;50.984;5.822;2023-01-13T01:24:41;9.80;99.90
24444;DHT22;13346;50.984;5.822;2023-01-13T01:27:08;9.80;99.90
24444;DHT22;13346;50.984;5.822;2023-01-13T01:29:35;9.60;99.90
24444;DHT22;13346;50.984;5.822;2023-01-13T01:32:02;9.50;99.90
24444;DHT22;13346;50.984;5.822;2023-01-13T01:34:29;9.30;99.90
24444;DHT22;13346;50.984;5.822;2023-01-13T01:36:58;9.10;99.90
24444;DHT22;13346;50.984;5.822;2023-01-13T01:39:25;9.10;99.90
24444;DHT22;13346;50.984;5.822;2023-01-13T01:41:52;9.00;99.90
24444;DHT22;13346;50.984;5.822;2023-01-13T01:44:57;8.90;99.90
24444;DHT22;13346;50.984;5.822;2023-01-13T01:47:27;8.80;99.90
24444;DHT22;13346;50.984;5.822;2023-01-13T01:49:55;8.80;99.90
24444;DHT22;13346;50.984;5.822;2023-01-13T01:52:28;8.80;99.90
24444;DHT22;13346;50.984;5.822;2023-01-13T01:55:00;8.70;99.90
24444;DHT22;13346;50.984;5.822;2023-01-13T01:57:32;8.70;99.90
24444;DHT22;13346;50.984;5.822;2023-01-13T02:00:03;8.80;99.90
24444;DHT22;13346;50.984;5.822;2023-01-13T02:02:31;8.70;99.90
24444;DHT22;13346;50.984;5.822;2023-01-13T02:05:00;8.70;99.90
24444;DHT22;13346;50.984;5.822;2023-01-13T02:07:31;8.70;99.90
24444;DHT22;13346;50.984;5.822;2023-01-13T02:10:03;8.70;99.90
24444;DHT22;13346;50.984;5.822;2023-01-13T02:12:30;8.60;99.90
24444;DHT22;13346;50.984;5.822;2023-01-13T02:15:00;8.50;99.90
24444;DHT22;13346;50.984;5.822;2023-01-13T02:20:51;8.60;99.90
24444;DHT22;13346;50.984;5.822;2023-01-13T02:27:18;8.70;99.90
24444;DHT22;13346;50.984;5.822;2023-01-13T02:30:00;8.60;99.90
24444;DHT22;13346;50.984;5.822;2023-01-13T02:32:57;8.60;99.90
24444;DHT22;13346;50.984;5.822;2023-01-13T02:35:34;8.60;99.90
24444;DHT22;13346;50.984;5.822;2023-01-13T02:38:03;8.40;99.90
24444;DHT22;13346;50.984;5.822;2023-01-13T02:40:34;8.40;99.90
24444;DHT22;13346;50.984;5.822;2023-01-13T02:43:07;8.30;99.90
24444;DHT22;13346;50.984;5.822;2023-01-13T02:45:58;8.30;99.90
24444;DHT22;13346;50.984;5.822;2023-01-13T02:48:28;8.40;99.90
24444;DHT22;13346;50.984;5.822;2023-01-13T02:51:04;8.40;99.90
24444;DHT22;13346;50.984;5.822;2023-01-13T02:53:34;8.40;99.90
24444;DHT22;13346;50.984;5.822;2023-01-13T02:56:04;8.50;99.90
24444;DHT22;13346;50.984;5.822;2023-01-13T02:58:35;8.50;99.90
24444;DHT22;13346;50.984;5.822;2023-01-13T03:01:05;8.40;99.90
24444;DHT22;13346;50.984;5.822;2023-01-13T03:03:32;8.30;99.90
24444;DHT22;13346;50.984;5.822;2023-01-13T03:06:11;8.40;99.90
24444;DHT22;13346;50.984;5.822;2023-01-13T03:08:47;8.40;99.90
24444;DHT22;13346;50.984;5.822;2023-01-13T03:11:17;8.50;99.90
24444;DHT22;13346;50.984;5.822;2023-01-13T03:14:08;8.40;99.90
24444;DHT22;13346;50.984;5.822;2023-01-13T03:16:47;8.40;99.90
24444;DHT22;13346;50.984;5.822;2023-01-13T03:19:27;8.50;99.90
24444;DHT22;13346;50.984;5.822;2023-01-13T03:22:00;8.50;99.90
24444;DHT22;13346;50.984;5.822;2023-01-13T03:24:35;8.40;99.90
24444;DHT22;13346;50.984;5.822;2023-01-13T03:27:06;8.40;99.90
24444;DHT22;13346;50.984;5.822;2023-01-13T03:29:41;8.40;99.90
24444;DHT22;13346;50.984;5.822;2023-01-13T03:32:14;8.40;99.90
24444;DHT22;13346;50.984;5.822;2023-01-13T03:34:45;8.20;99.90
24444;DHT22;13346;50.984;5.822;2023-01-13T03:37:14;8.10;99.90
24444;DHT22;13346;50.984;5.822;2023-01-13T03:39:46;8.10;99.90
24444;DHT22;13346;50.984;5.822;2023-01-13T03:42:18;8.30;99.90
24444;DHT22;13346;50.984;5.822;2023-01-13T03:44:50;8.40;99.90
24444;DHT22;13346;50.984;5.822;2023-01-13T03:47:26;8.40;99.90
24444;DHT22;13346;50.984;5.822;2023-01-13T03:49:59;8.40;99.90
24444;DHT22;13346;50.984;5.822;2023-01-13T03:52:32;8.50;99.90
24444;DHT22;13346;50.984;5.822;2023-01-13T03:55:03;8.50;99.90
24444;DHT22;13346;50.984;5.822;2023-01-13T03:57:34;8.50;99.90
24444;DHT22;13346;50.984;5.822;2023-01-13T04:00:05;8.50;99.90
24444;DHT22;13346;50.984;5.822;2023-01-13T04:02:42;8.60;99.90
24444;DHT22;13346;50.984;5.822;2023-01-13T04:05:11;8.50;99.90
24444;DHT22;13346;50.984;5.822;2023-01-13T04:07:48;8.50;99.90
24444;DHT22;13346;50.984;5.822;2023-01-13T04:10:20;8.50;99.90
24444;DHT22;13346;50.984;5.822;2023-01-13T04:12:52;8.50;99.90
24444;DHT22;13346;50.984;5.822;2023-01-13T04:15:28;8.60;99.90
24444;DHT22;13346;50.984;5.822;2023-01-13T04:18:12;8.70;99.90
24444;DHT22;13346;50.984;5.822;2023-01-13T04:20:40;8.80;99.90
24444;DHT22;13346;50.984;5.822;2023-01-13T04:23:08;8.70;99.90
24444;DHT22;13346;50.984;5.822;2023-01-13T04:25:36;8.70;99.90
24444;DHT22;13346;50.984;5.822;2023-01-13T04:28:03;8.70;99.90
24444;DHT22;13346;50.984;5.822;2023-01-13T04:30:30;8.60;99.90
24444;DHT22;13346;50.984;5.822;2023-01-13T04:32:58;8.40;99.90
24444;DHT22;13346;50.984;5.822;2023-01-13T04:35:26;8.40;99.90
24444;DHT22;13346;50.984;5.822;2023-01-13T04:37:54;8.30;99.90
24444;DHT22;13346;50.984;5.822;2023-01-13T04:40:21;8.10;99.90
24444;DHT22;13346;50.984;5.822;2023-01-13T04:42:49;8.10;99.90
24444;DHT22;13346;50.984;5.822;2023-01-13T04:45:16;8.20;99.90
24444;DHT22;13346;50.984;5.822;2023-01-13T04:47:43;8.20;99.90
24444;DHT22;13346;50.984;5.822;2023-01-13T04:50:10;8.30;99.90
24444;DHT22;13346;50.984;5.822;2023-01-13T04:52:39;8.30;99.90
24444;DHT22;13346;50.984;5.822;2023-01-13T04:55:07;8.30;99.90
24444;DHT22;13346;50.984;5.822;2023-01-13T04:57:35;8.40;99.90
24444;DHT22;13346;50.984;5.822;2023-01-13T05:00:04;8.50;99.90
24444;DHT22;13346;50.984;5.822;2023-01-13T05:02:32;8.50;99.90
24444;DHT22;13346;50.984;5.822;2023-01-13T05:04:59;8.40;99.90
24444;DHT22;13346;50.984;5.822;2023-01-13T05:07:26;8.40;99.90
24444;DHT22;13346;50.984;5.822;2023-01-13T05:09:55;8.40;99.90
24444;DHT22;13346;50.984;5.822;2023-01-13T05:12:22;8.40;99.90
24444;DHT22;13346;50.984;5.822;2023-01-13T05:15:13;8.40;99.90
24444;DHT22;13346;50.984;5.822;2023-01-13T05:17:58;8.50;99.90
24444;DHT22;13346;50.984;5.822;2023-01-13T05:20:25;8.40;99.90
24444;DHT22;13346;50.984;5.822;2023-01-13T05:22:52;8.50;99.90
24444;DHT22;13346;50.984;5.822;2023-01-13T05:25:40;8.50;99.90
24444;DHT22;13346;50.984;5.822;2023-01-13T05:28:08;8.50;99.90
24444;DHT22;13346;50.984;5.822;2023-01-13T05:30:37;8.50;99.90
24444;DHT22;13346;50.984;5.822;2023-01-13T05:33:07;8.40;99.90
24444;DHT22;13346;50.984;5.822;2023-01-13T05:35:36;8.50;99.90
24444;DHT22;13346;50.984;5.822;2023-01-13T05:38:04;8.60;99.90
24444;DHT22;13346;50.984;5.822;2023-01-13T05:40:31;8.60;99.90
24444;DHT22;13346;50.984;5.822;2023-01-13T05:43:18;8.70;99.90
24444;DHT22;13346;50.984;5.822;2023-01-13T05:45:47;8.70;99.90
24444;DHT22;13346;50.984;5.822;2023-01-13T05:48:15;8.70;99.90
24444;DHT22;13346;50.984;5.822;2023-01-13T05:50:43;8.80;99.90
24444;DHT22;13346;50.984;5.822;2023-01-13T05:53:11;8.70;99.90
24444;DHT22;13346;50.984;5.822;2023-01-13T05:55:39;8.80;99.90
24444;DHT22;13346;50.984;5.822;2023-01-13T05:58:06;8.70;99.90
24444;DHT22;13346;50.984;5.822;2023-01-13T06:00:35;8.60;99.90
24444;DHT22;13346;50.984;5.822;2023-01-13T06:03:03;8.60;99.90
24444;DHT22;13346;50.984;5.822;2023-01-13T06:05:31;8.50;99.90
24444;DHT22;13346;50.984;5.822;2023-01-13T06:08:00;8.30;99.90
24444;DHT22;13346;50.984;5.822;2023-01-13T06:10:28;8.20;99.90
24444;DHT22;13346;50.984;5.822;2023-01-13T06:12:56;8.10;99.90
24444;DHT22;13346;50.984;5.822;2023-01-13T06:15:23;8.20;99.90
24444;DHT22;13346;50.984;5.822;2023-01-13T06:17:52;8.20;99.90
24444;DHT22;13346;50.984;5.822;2023-01-13T06:20:19;8.20;99.90
24444;DHT22;13346;50.984;5.822;2023-01-13T06:22:48;8.30;99.90
24444;DHT22;13346;50.984;5.822;2023-01-13T06:25:21;8.20;99.90
24444;DHT22;13346;50.984;5.822;2023-01-13T06:27:50;8.20;99.90
24444;DHT22;13346;50.984;5.822;2023-01-13T06:30:18;8.20;99.90
24444;DHT22;13346;50.984;5.822;2023-01-13T06:32:48;8.10;99.90
24444;DHT22;13346;50.984;5.822;2023-01-13T06:35:21;8.00;99.90
24444;DHT22;13346;50.984;5.822;2023-01-13T06:37:53;8.00;99.90
24444;DHT22;13346;50.984;5.822;2023-01-13T06:40:21;7.90;99.90
24444;DHT22;13346;50.984;5.822;2023-01-13T06:42:50;7.80;99.90
24444;DHT22;13346;50.984;5.822;2023-01-13T06:45:36;7.80;99.90
24444;DHT22;13346;50.984;5.822;2023-01-13T06:48:03;7.80;99.90
24444;DHT22;13346;50.984;5.822;2023-01-13T06:50:32;7.70;99.90
24444;DHT22;13346;50.984;5.822;2023-01-13T06:53:00;7.70;99.90
24444;DHT22;13346;50.984;5.822;2023-01-13T06:55:27;7.70;99.90
24444;DHT22;13346;50.984;5.822;2023-01-13T06:57:55;7.70;99.90
24444;DHT22;13346;50.984;5.822;2023-01-13T07:00:24;7.60;99.90
24444;DHT22;13346;50.984;5.822;2023-01-13T07:02:52;7.60;99.90
24444;DHT22;13346;50.984;5.822;2023-01-13T07:05:19;7.60;99.90
24444;DHT22;13346;50.984;5.822;2023-01-13T07:07:48;7.60;99.90
24444;DHT22;13346;50.984;5.822;2023-01-13T07:10:16;7.60;99.90
24444;DHT22;13346;50.984;5.822;2023-01-13T07:12:47;7.60;99.90
24444;DHT22;13346;50.984;5.822;2023-01-13T07:15:33;7.60;99.90
24444;DHT22;13346;50.984;5.822;2023-01-13T07:18:01;7.60;99.90
24444;DHT22;13346;50.984;5.822;2023-01-13T07:20:28;7.50;99.90
24444;DHT22;13346;50.984;5.822;2023-01-13T07:22:57;7.50;99.90
24444;DHT22;13346;50.984;5.822;2023-01-13T07:25:25;7.60;99.90
24444;DHT22;13346;50.984;5.822;2023-01-13T07:27:52;7.70;99.90
24444;DHT22;13346;50.984;5.822;2023-01-13T07:30:19;7.50;99.90
24444;DHT22;13346;50.984;5.822;2023-01-13T07:32:46;7.50;99.90
24444;DHT22;13346;50.984;5.822;2023-01-13T07:35:14;7.50;99.90
24444;DHT22;13346;50.984;5.822;2023-01-13T07:37:47;7.50;99.90
24444;DHT22;13346;50.984;5.822;2023-01-13T07:40:16;7.60;99.90
24444;DHT22;13346;50.984;5.822;2023-01-13T07:42:43;7.50;99.90
24444;DHT22;13346;50.984;5.822;2023-01-13T07:45:28;7.50;99.90
24444;DHT22;13346;50.984;5.822;2023-01-13T07:47:55;7.70;99.90
24444;DHT22;13346;50.984;5.822;2023-01-13T07:50:23;7.70;99.90
24444;DHT22;13346;50.984;5.822;2023-01-13T07:52:50;7.70;99.90
24444;DHT22;13346;50.984;5.822;2023-01-13T07:55:19;7.70;99.90
24444;DHT22;13346;50.984;5.822;2023-01-13T07:57:47;7.70;99.90
24444;DHT22;13346;50.984;5.822;2023-01-13T08:00:15;7.70;99.90
24444;DHT22;13346;50.984;5.822;2023-01-13T08:02:43;7.60;99.90
24444;DHT22;13346;50.984;5.822;2023-01-13T08:05:10;7.50;99.90
24444;DHT22;13346;50.984;5.822;2023-01-13T08:07:37;7.60;99.90
24444;DHT22;13346;50.984;5.822;2023-01-13T08:10:06;7.50;99.90
24444;DHT22;13346;50.984;5.822;2023-01-13T08:12:35;7.40;99.90
24444;DHT22;13346;50.984;5.822;2023-01-13T08:15:19;7.50;99.90
24444;DHT22;13346;50.984;5.822;2023-01-13T08:17:46;7.60;99.90
24444;DHT22;13346;50.984;5.822;2023-01-13T08:20:14;7.70;99.90
24444;DHT22;13346;50.984;5.822;2023-01-13T08:22:41;7.80;99.90
24444;DHT22;13346;50.984;5.822;2023-01-13T08:25:09;8.00;99.90
24444;DHT22;13346;50.984;5.822;2023-01-13T08:27:37;8.00;99.90
24444;DHT22;13346;50.984;5.822;2023-01-13T08:30:06;8.10;99.90
24444;DHT22;13346;50.984;5.822;2023-01-13T08:32:33;8.20;99.90
24444;DHT22;13346;50.984;5.822;2023-01-13T08:35:00;8.30;99.90
24444;DHT22;13346;50.984;5.822;2023-01-13T08:37:27;8.40;99.90
24444;DHT22;13346;50.984;5.822;2023-01-13T08:39:54;8.30;99.90
24444;DHT22;13346;50.984;5.822;2023-01-13T08:42:22;8.20;99.90
24444;DHT22;13346;50.984;5.822;2023-01-13T08:44:53;8.20;99.90
24444;DHT22;13346;50.984;5.822;2023-01-13T08:47:20;8.20;99.90
24444;DHT22;13346;50.984;5.822;2023-01-13T08:49:47;8.30;99.90
24444;DHT22;13346;50.984;5.822;2023-01-13T08:52:14;8.30;99.90
24444;DHT22;13346;50.984;5.822;2023-01-13T08:54:42;8.20;99.90
24444;DHT22;13346;50.984;5.822;2023-01-13T08:57:09;8.30;99.90
24444;DHT22;13346;50.984;5.822;2023-01-13T08:59:36;8.40;99.90
24444;DHT22;13346;50.984;5.822;2023-01-13T09:02:11;8.50;99.90
24444;DHT22;13346;50.984;5.822;2023-01-13T09:04:40;8.50;99.90
24444;DHT22;13346;50.984;5.822;2023-01-13T09:07:07;8.70;99.90
24444;DHT22;13346;50.984;5.822;2023-01-13T09:09:34;8.80;99.90
24444;DHT22;13346;50.984;5.822;2023-01-13T09:12:01;9.00;99.90
24444;DHT22;13346;50.984;5.822;2023-01-13T09:14:45;8.90;99.90
24444;DHT22;13346;50.984;5.822;2023-01-13T09:17:14;8.80;99.90
24444;DHT22;13346;50.984;5.822;2023-01-13T09:19:41;8.80;99.90
24444;DHT22;13346;50.984;5.822;2023-01-13T09:22:09;8.80;99.90
24444;DHT22;13346;50.984;5.822;2023-01-13T09:24:39;8.80;99.90
24444;DHT22;13346;50.984;5.822;2023-01-13T09:27:08;8.80;99.90
24444;DHT22;13346;50.984;5.822;2023-01-13T09:29:35;9.20;99.90
24444;DHT22;13346;50.984;5.822;2023-01-13T09:32:02;9.30;99.90
24444;DHT22;13346;50.984;5.822;2023-01-13T09:34:32;9.50;99.90
24444;DHT22;13346;50.984;5.822;2023-01-13T09:37:16;9.50;99.90
24444;DHT22;13346;50.984;5.822;2023-01-13T09:39:44;9.20;99.90
24444;DHT22;13346;50.984;5.822;2023-01-13T09:42:17;9.40;99.90
24444;DHT22;13346;50.984;5.822;2023-01-13T09:45:06;9.40;99.90
24444;DHT22;13346;50.984;5.822;2023-01-13T09:47:39;9.40;99.90
24444;DHT22;13346;50.984;5.822;2023-01-13T09:50:21;9.40;99.90
24444;DHT22;13346;50.984;5.822;2023-01-13T09:52:51;9.50;99.90
24444;DHT22;13346;50.984;5.822;2023-01-13T09:55:24;9.60;99.90
24444;DHT22;13346;50.984;5.822;2023-01-13T09:57:54;9.40;99.90
24444;DHT22;13346;50.984;5.822;2023-01-13T10:00:23;9.40;99.90
24444;DHT22;13346;50.984;5.822;2023-01-13T10:03:02;9.50;99.90
24444;DHT22;13346;50.984;5.822;2023-01-13T10:05:37;9.70;99.90
24444;DHT22;13346;50.984;5.822;2023-01-13T10:08:10;9.80;99.90
24444;DHT22;13346;50.984;5.822;2023-01-13T10:10:41;9.90;99.90
24444;DHT22;13346;50.984;5.822;2023-01-13T10:13:15;9.90;99.90
24444;DHT22;13346;50.984;5.822;2023-01-13T10:15:58;9.90;99.90
24444;DHT22;13346;50.984;5.822;2023-01-13T10:18:33;10.00;99.90
24444;DHT22;13346;50.984;5.822;2023-01-13T10:21:14;10.20;99.90
24444;DHT22;13346;50.984;5.822;2023-01-13T10:23:52;10.10;99.90
24444;DHT22;13346;50.984;5.822;2023-01-13T10:26:49;10.20;99.90
24444;DHT22;13346;50.984;5.822;2023-01-13T10:29:21;10.20;99.90
24444;DHT22;13346;50.984;5.822;2023-01-13T10:31:50;9.90;99.90
24444;DHT22;13346;50.984;5.822;2023-01-13T10:34:17;9.90;99.90
24444;DHT22;13346;50.984;5.822;2023-01-13T10:36:57;9.80;99.90
24444;DHT22;13346;50.984;5.822;2023-01-13T10:39:39;9.90;99.90
24444;DHT22;13346;50.984;5.822;2023-01-13T10:42:12;9.90;99.90
24444;DHT22;13346;50.984;5.822;2023-01-13T10:44:49;9.80;99.90
24444;DHT22;13346;50.984;5.822;2023-01-13T10:47:22;9.80;99.90
24444;DHT22;13346;50.984;5.822;2023-01-13T10:50:03;9.80;99.90
24444;DHT22;13346;50.984;5.822;2023-01-13T10:52:33;9.80;99.90
24444;DHT22;13346;50.984;5.822;2023-01-13T10:55:12;9.80;99.90
24444;DHT22;13346;50.984;5.822;2023-01-13T10:57:50;9.90;99.90
24444;DHT22;13346;50.984;5.822;2023-01-13T11:00:26;9.90;99.90
24444;DHT22;13346;50.984;5.822;2023-01-13T11:03:14;9.90;99.90
24444;DHT22;13346;50.984;5.822;2023-01-13T11:05:48;9.80;99.90
24444;DHT22;13346;50.984;5.822;2023-01-13T11:08:20;9.80;99.90
24444;DHT22;13346;50.984;5.822;2023-01-13T11:10:49;9.90;99.90
24444;DHT22;13346;50.984;5.822;2023-01-13T11:13:20;9.80;99.90
24444;DHT22;13346;50.984;5.822;2023-01-13T11:15:53;9.90;99.90
24444;DHT22;13346;50.984;5.822;2023-01-13T11:18:27;9.80;99.90
24444;DHT22;13346;50.984;5.822;2023-01-13T11:20:59;9.70;99.90
24444;DHT22;13346;50.984;5.822;2023-01-13T11:23:34;9.70;99.90
24444;DHT22;13346;50.984;5.822;2023-01-13T11:26:08;9.80;99.90
24444;DHT22;13346;50.984;5.822;2023-01-13T11:28:44;9.80;99.90
24444;DHT22;13346;50.984;5.822;2023-01-13T11:31:17;9.90;99.90
24444;DHT22;13346;50.984;5.822;2023-01-13T11:33:51;9.90;99.90
24444;DHT22;13346;50.984;5.822;2023-01-13T11:36:22;9.70;99.90
24444;DHT22;13346;50.984;5.822;2023-01-13T11:38:53;9.60;99.90
24444;DHT22;13346;50.984;5.822;2023-01-13T11:41:29;9.50;99.90
24444;DHT22;13346;50.984;5.822;2023-01-13T11:44:05;9.50;99.90
24444;DHT22;13346;50.984;5.822;2023-01-13T11:46:36;9.40;99.90
24444;DHT22;13346;50.984;5.822;2023-01-13T11:49:04;9.30;99.90
24444;DHT22;13346;50.984;5.822;2023-01-13T11:51:35;9.20;99.90
24444;DHT22;13346;50.984;5.822;2023-01-13T11:54:25;9.10;99.90
24444;DHT22;13346;50.984;5.822;2023-01-13T11:57:27;9.00;99.90
24444;DHT22;13346;50.984;5.822;2023-01-13T12:00:16;8.80;99.90
24444;DHT22;13346;50.984;5.822;2023-01-13T12:02:55;8.60;99.90
24444;DHT22;13346;50.984;5.822;2023-01-13T12:05:35;8.30;99.90
24444;DHT22;13346;50.984;5.822;2023-01-13T12:08:15;8.20;99.90
24444;DHT22;13346;50.984;5.822;2023-01-13T12:10:54;8.20;99.90
24444;DHT22;13346;50.984;5.822;2023-01-13T12:13:31;8.10;99.90
24444;DHT22;13346;50.984;5.822;2023-01-13T12:16:22;8.20;99.90
24444;DHT22;13346;50.984;5.822;2023-01-13T12:19:15;8.40;99.90
24444;DHT22;13346;50.984;5.822;2023-01-13T12:21:58;8.50;99.90
24444;DHT22;13346;50.984;5.822;2023-01-13T12:24:31;8.60;99.90
24444;DHT22;13346;50.984;5.822;2023-01-13T12:27:07;8.70;99.90
24444;DHT22;13346;50.984;5.822;2023-01-13T12:29:37;8.60;99.90
24444;DHT22;13346;50.984;5.822;2023-01-13T12:32:10;8.60;99.90
24444;DHT22;13346;50.984;5.822;2023-01-13T12:34:48;8.80;99.90
24444;DHT22;13346;50.984;5.822;2023-01-13T12:37:24;8.80;99.90
24444;DHT22;13346;50.984;5.822;2023-01-13T12:40:14;8.90;99.90
24444;DHT22;13346;50.984;5.822;2023-01-13T12:42:51;8.80;99.90
24444;DHT22;13346;50.984;5.822;2023-01-13T12:45:39;8.80;99.90
24444;DHT22;13346;50.984;5.822;2023-01-13T12:48:16;8.80;99.90
24444;DHT22;13346;50.984;5.822;2023-01-13T12:51:02;8.70;99.90
24444;DHT22;13346;50.984;5.822;2023-01-13T12:53:35;8.70;99.90
24444;DHT22;13346;50.984;5.822;2023-01-13T12:59:33;8.80;99.90
24444;DHT22;13346;50.984;5.822;2023-01-13T13:02:29;8.50;99.90
24444;DHT22;13346;50.984;5.822;2023-01-13T13:04:58;8.40;99.90
24444;DHT22;13346;50.984;5.822;2023-01-13T13:07:40;8.40;99.90
24444;DHT22;13346;50.984;5.822;2023-01-13T13:10:16;8.30;99.90
24444;DHT22;13346;50.984;5.822;2023-01-13T13:12:56;8.30;99.90
24444;DHT22;13346;50.984;5.822;2023-01-13T13:15:39;8.30;99.90
24444;DHT22;13346;50.984;5.822;2023-01-13T13:18:24;8.20;99.90
24444;DHT22;13346;50.984;5.822;2023-01-13T13:21:04;8.30;99.90
24444;DHT22;13346;50.984;5.822;2023-01-13T13:26:27;8.20;99.90
24444;DHT22;13346;50.984;5.822;2023-01-13T13:29:20;8.30;99.90
24444;DHT22;13346;50.984;5.822;2023-01-13T13:32:10;8.30;99.90
24444;DHT22;13346;50.984;5.822;2023-01-13T13:34:45;8.30;99.90
24444;DHT22;13346;50.984;5.822;2023-01-13T13:37:31;8.30;99.90
24444;DHT22;13346;50.984;5.822;2023-01-13T13:40:21;8.40;99.90
24444;DHT22;13346;50.984;5.822;2023-01-13T13:43:10;8.50;99.90
24444;DHT22;13346;50.984;5.822;2023-01-13T13:45:56;8.60;99.90
24444;DHT22;13346;50.984;5.822;2023-01-13T13:48:51;8.70;99.90
24444;DHT22;13346;50.984;5.822;2023-01-13T13:51:25;8.70;99.90
24444;DHT22;13346;50.984;5.822;2023-01-13T13:53:54;8.80;99.90
24444;DHT22;13346;50.984;5.822;2023-01-13T13:56:26;8.80;99.90
24444;DHT22;13346;50.984;5.822;2023-01-13T13:58:54;8.70;99.90
24444;DHT22;13346;50.984;5.822;2023-01-13T14:01:24;8.70;99.90
24444;DHT22;13346;50.984;5.822;2023-01-13T14:04:12;8.70;99.90
24444;DHT22;13346;50.984;5.822;2023-01-13T14:06:49;8.70;99.90
24444;DHT22;13346;50.984;5.822;2023-01-13T14:09:18;8.60;99.90
24444;DHT22;13346;50.984;5.822;2023-01-13T14:11:54;8.60;99.90
24444;DHT22;13346;50.984;5.822;2023-01-13T14:14:21;8.40;99.90
24444;DHT22;13346;50.984;5.822;2023-01-13T14:16:49;8.40;99.90
24444;DHT22;13346;50.984;5.822;2023-01-13T14:19:25;8.30;99.90
24444;DHT22;13346;50.984;5.822;2023-01-13T14:21:54;8.30;99.90
24444;DHT22;13346;50.984;5.822;2023-01-13T14:24:22;8.40;99.90
24444;DHT22;13346;50.984;5.822;2023-01-13T14:26:50;8.50;99.90
24444;DHT22;13346;50.984;5.822;2023-01-13T14:29:20;8.50;99.90
24444;DHT22;13346;50.984;5.822;2023-01-13T14:31:49;8.50;99.90
24444;DHT22;13346;50.984;5.822;2023-01-13T14:34:18;8.50;99.90
24444;DHT22;13346;50.984;5.822;2023-01-13T14:36:48;8.40;99.90
24444;DHT22;13346;50.984;5.822;2023-01-13T14:39:35;8.30;99.90
24444;DHT22;13346;50.984;5.822;2023-01-13T14:42:03;8.20;99.90
24444;DHT22;13346;50.984;5.822;2023-01-13T14:44:32;8.10;99.90
24444;DHT22;13346;50.984;5.822;2023-01-13T14:47:02;8.10;99.90
24444;DHT22;13346;50.984;5.822;2023-01-13T14:49:33;8.10;99.90
24444;DHT22;13346;50.984;5.822;2023-01-13T14:52:09;8.00;99.90
24444;DHT22;13346;50.984;5.822;2023-01-13T14:54:45;8.00;99.90
24444;DHT22;13346;50.984;5.822;2023-01-13T14:57:15;7.90;99.90
24444;DHT22;13346;50.984;5.822;2023-01-13T14:59:47;7.90;99.90
24444;DHT22;13346;50.984;5.822;2023-01-13T15:02:41;7.90;99.90
24444;DHT22;13346;50.984;5.822;2023-01-13T15:05:37;7.90;99.90
24444;DHT22;13346;50.984;5.822;2023-01-13T15:08:28;7.90;99.90
24444;DHT22;13346;50.984;5.822;2023-01-13T15:10:58;7.80;99.90
24444;DHT22;13346;50.984;5.822;2023-01-13T15:13:30;7.80;99.90
24444;DHT22;13346;50.984;5.822;2023-01-13T15:16:02;7.90;99.90
24444;DHT22;13346;50.984;5.822;2023-01-13T15:18:32;7.90;99.90
24444;DHT22;13346;50.984;5.822;2023-01-13T15:21:05;8.00;99.90
24444;DHT22;13346;50.984;5.822;2023-01-13T15:23:34;8.00;99.90
24444;DHT22;13346;50.984;5.822;2023-01-13T15:26:02;8.00;99.90
24444;DHT22;13346;50.984;5.822;2023-01-13T15:28:30;8.00;99.90
24444;DHT22;13346;50.984;5.822;2023-01-13T15:30:57;8.00;99.90
24444;DHT22;13346;50.984;5.822;2023-01-13T15:33:28;8.00;99.90
24444;DHT22;13346;50.984;5.822;2023-01-13T15:35:55;8.00;99.90
24444;DHT22;13346;50.984;5.822;2023-01-13T15:38:23;8.00;99.90
24444;DHT22;13346;50.984;5.822;2023-01-13T15:40:52;8.00;99.90
24444;DHT22;13346;50.984;5.822;2023-01-13T15:43:20;8.00;99.90
24444;DHT22;13346;50.984;5.822;2023-01-13T15:46:11;8.10;99.90
24444;DHT22;13346;50.984;5.822;2023-01-13T15:49:01;8.20;99.90
24444;DHT22;13346;50.984;5.822;2023-01-13T15:51:33;8.30;99.90
24444;DHT22;13346;50.984;5.822;2023-01-13T15:54:00;8.30;99.90
24444;DHT22;13346;50.984;5.822;2023-01-13T15:56:29;8.30;99.90
24444;DHT22;13346;50.984;5.822;2023-01-13T15:58:56;8.30;99.90
24444;DHT22;13346;50.984;5.822;2023-01-13T16:01:23;8.30;99.90
24444;DHT22;13346;50.984;5.822;2023-01-13T16:03:50;8.30;99.90
24444;DHT22;13346;50.984;5.822;2023-01-13T16:06:19;8.30;99.90
24444;DHT22;13346;50.984;5.822;2023-01-13T16:08:47;8.30;99.90
24444;DHT22;13346;50.984;5.822;2023-01-13T16:11:14;8.30;99.90
24444;DHT22;13346;50.984;5.822;2023-01-13T16:13:43;8.30;99.90
24444;DHT22;13346;50.984;5.822;2023-01-13T16:16:21;8.30;99.90
24444;DHT22;13346;50.984;5.822;2023-01-13T16:18:49;8.30;99.90
24444;DHT22;13346;50.984;5.822;2023-01-13T16:21:17;8.40;99.90
24444;DHT22;13346;50.984;5.822;2023-01-13T16:23:45;8.50;99.90
24444;DHT22;13346;50.984;5.822;2023-01-13T16:26:17;8.50;99.90
24444;DHT22;13346;50.984;5.822;2023-01-13T16:28:47;8.60;99.90
24444;DHT22;13346;50.984;5.822;2023-01-13T16:31:18;8.70;99.90